sensor_id;sensor_type;location;lat;lon;timestamp;temperature;humidity
74661;SHT31;63191;39.566;2.654;2023-07-22T00:00:49;27.49;70.63
74661;SHT31;63191;39.566;2.654;2023-07-22T00:03:15;27.50;70.62
74661;SHT31;63191;39.566;2.654;2023-07-22T00:05:41;27.51;70.55
74661;SHT31;63191;39.566;2.654;2023-07-22T00:08:07;27.54;70.57
74661;SHT31;63191;39.566;2.654;2023-07-22T00:10:32;27.55;70.51
74661;SHT31;63191;39.566;2.654;2023-07-22T00:12:58;27.54;70.52
74661;SHT31;63191;39.566;2.654;2023-07-22T00:15:24;27.51;70.57
74661;SHT31;63191;39.566;2.654;2023-07-22T00:17:50;27.50;70.60
74661;SHT31;63191;39.566;2.654;2023-07-22T00:20:18;27.46;70.68
74661;SHT31;63191;39.566;2.654;2023-07-22T00:22:45;27.46;70.76
74661;SHT31;63191;39.566;2.654;2023-07-22T00:25:11;27.45;70.82
74661;SHT31;63191;39.566;2.654;2023-07-22T00:27:38;27.44;70.91
74661;SHT31;63191;39.566;2.654;2023-07-22T00:30:08;27.41;70.95
74661;SHT31;63191;39.566;2.654;2023-07-22T00:32:35;27.41;70.95
74661;SHT31;63191;39.566;2.654;2023-07-22T00:35:03;27.40;70.96
74661;SHT31;63191;39.566;2.654;2023-07-22T00:37:32;27.40;70.91
74661;SHT31;63191;39.566;2.654;2023-07-22T00:39:58;27.40;70.90
74661;SHT31;63191;39.566;2.654;2023-07-22T00:42:24;27.41;70.92
74661;SHT31;63191;39.566;2.654;2023-07-22T00:44:50;27.43;70.82
74661;SHT31;63191;39.566;2.654;2023-07-22T00:47:16;27.44;70.81
74661;SHT31;63191;39.566;2.654;2023-07-22T00:49:43;27.46;70.86
74661;SHT31;63191;39.566;2.654;2023-07-22T00:52:14;27.46;70.84
74661;SHT31;63191;39.566;2.654;2023-07-22T00:54:41;27.46;70.90
74661;SHT31;63191;39.566;2.654;2023-07-22T00:57:07;27.47;70.92
74661;SHT31;63191;39.566;2.654;2023-07-22T00:59:34;27.45;70.97
74661;SHT31;63191;39.566;2.654;2023-07-22T01:02:00;27.43;71.14
74661;SHT31;63191;39.566;2.654;2023-07-22T01:04:26;27.40;71.19
74661;SHT31;63191;39.566;2.654;2023-07-22T01:06:52;27.37;71.20
74661;SHT31;63191;39.566;2.654;2023-07-22T01:09:19;27.35;71.22
74661;SHT31;63191;39.566;2.654;2023-07-22T01:11:44;27.33;71.24
74661;SHT31;63191;39.566;2.654;2023-07-22T01:14:10;27.32;71.27
74661;SHT31;63191;39.566;2.654;2023-07-22T01:16:36;27.30;71.24
74661;SHT31;63191;39.566;2.654;2023-07-22T01:19:02;27.29;71.22
74661;SHT31;63191;39.566;2.654;2023-07-22T01:21:29;27.30;71.20
74661;SHT31;63191;39.566;2.654;2023-07-22T01:23:57;27.32;71.23
74661;SHT31;63191;39.566;2.654;2023-07-22T01:26:23;27.32;71.20
74661;SHT31;63191;39.566;2.654;2023-07-22T01:28:49;27.31;71.22
74661;SHT31;63191;39.566;2.654;2023-07-22T01:31:15;27.29;71.19
74661;SHT31;63191;39.566;2.654;2023-07-22T01:33:40;27.26;71.14
74661;SHT31;63191;39.566;2.654;2023-07-22T01:36:06;27.25;71.15
74661;SHT31;63191;39.566;2.654;2023-07-22T01:38:32;27.25;71.10
74661;SHT31;63191;39.566;2.654;2023-07-22T01:41:01;27.28;71.10
74661;SHT31;63191;39.566;2.654;2023-07-22T01:43:27;27.30;71.03
74661;SHT31;63191;39.566;2.654;2023-07-22T01:45:53;27.32;70.89
74661;SHT31;63191;39.566;2.654;2023-07-22T01:48:19;27.33;70.80
74661;SHT31;63191;39.566;2.654;2023-07-22T01:50:44;27.32;70.81
74661;SHT31;63191;39.566;2.654;2023-07-22T01:53:10;27.32;70.83
74661;SHT31;63191;39.566;2.654;2023-07-22T01:55:36;27.30;70.93
74661;SHT31;63191;39.566;2.654;2023-07-22T01:58:01;27.28;70.93
74661;SHT31;63191;39.566;2.654;2023-07-22T02:00:27;27.29;70.92
74661;SHT31;63191;39.566;2.654;2023-07-22T02:02:53;27.28;70.90
74661;SHT31;63191;39.566;2.654;2023-07-22T02:05:19;27.26;70.90
74661;SHT31;63191;39.566;2.654;2023-07-22T02:07:46;27.25;70.90
74661;SHT31;63191;39.566;2.654;2023-07-22T02:10:11;27.23;70.92
74661;SHT31;63191;39.566;2.654;2023-07-22T02:12:38;27.22;70.92
74661;SHT31;63191;39.566;2.654;2023-07-22T02:15:04;27.22;70.92
74661;SHT31;63191;39.566;2.654;2023-07-22T02:17:30;27.20;70.85
74661;SHT31;63191;39.566;2.654;2023-07-22T02:19:56;27.19;70.81
74661;SHT31;63191;39.566;2.654;2023-07-22T02:22:22;27.15;70.92
74661;SHT31;63191;39.566;2.654;2023-07-22T02:24:47;27.11;70.91
74661;SHT31;63191;39.566;2.654;2023-07-22T02:27:13;27.08;70.99
74661;SHT31;63191;39.566;2.654;2023-07-22T02:29:39;27.05;71.06
74661;SHT31;63191;39.566;2.654;2023-07-22T02:32:05;27.04;71.17
74661;SHT31;63191;39.566;2.654;2023-07-22T02:34:31;27.02;71.20
74661;SHT31;63191;39.566;2.654;2023-07-22T02:36:57;27.01;71.26
74661;SHT31;63191;39.566;2.654;2023-07-22T02:39:22;27.00;71.24
74661;SHT31;63191;39.566;2.654;2023-07-22T02:41:48;26.96;71.23
74661;SHT31;63191;39.566;2.654;2023-07-22T02:44:14;26.94;71.22
74661;SHT31;63191;39.566;2.654;2023-07-22T02:46:40;26.93;71.19
74661;SHT31;63191;39.566;2.654;2023-07-22T02:49:06;26.93;71.13
74661;SHT31;63191;39.566;2.654;2023-07-22T02:51:32;26.91;71.04
74661;SHT31;63191;39.566;2.654;2023-07-22T02:53:58;26.88;71.00
74661;SHT31;63191;39.566;2.654;2023-07-22T02:56:23;26.85;71.03
74661;SHT31;63191;39.566;2.654;2023-07-22T02:58:49;26.81;71.12
74661;SHT31;63191;39.566;2.654;2023-07-22T03:01:15;26.76;71.24
74661;SHT31;63191;39.566;2.654;2023-07-22T03:03:41;26.74;71.30
74661;SHT31;63191;39.566;2.654;2023-07-22T03:06:07;26.73;71.40
74661;SHT31;63191;39.566;2.654;2023-07-22T03:08:34;26.73;71.42
74661;SHT31;63191;39.566;2.654;2023-07-22T03:11:01;26.72;71.41
74661;SHT31;63191;39.566;2.654;2023-07-22T03:13:28;26.72;71.43
74661;SHT31;63191;39.566;2.654;2023-07-22T03:15:55;26.72;71.38
74661;SHT31;63191;39.566;2.654;2023-07-22T03:18:21;26.70;71.34
74661;SHT31;63191;39.566;2.654;2023-07-22T03:20:48;26.70;71.40
74661;SHT31;63191;39.566;2.654;2023-07-22T03:23:16;26.67;71.41
74661;SHT31;63191;39.566;2.654;2023-07-22T03:25:42;26.66;71.39
74661;SHT31;63191;39.566;2.654;2023-07-22T03:28:12;26.64;71.32
74661;SHT31;63191;39.566;2.654;2023-07-22T03:30:37;26.61;71.30
74661;SHT31;63191;39.566;2.654;2023-07-22T03:33:03;26.58;71.33
74661;SHT31;63191;39.566;2.654;2023-07-22T03:35:30;26.57;71.30
74661;SHT31;63191;39.566;2.654;2023-07-22T03:37:58;26.54;71.30
74661;SHT31;63191;39.566;2.654;2023-07-22T03:40:25;26.54;71.38
74661;SHT31;63191;39.566;2.654;2023-07-22T03:42:55;26.54;71.47
74661;SHT31;63191;39.566;2.654;2023-07-22T03:45:22;26.53;71.50
74661;SHT31;63191;39.566;2.654;2023-07-22T03:47:58;26.54;71.58
74661;SHT31;63191;39.566;2.654;2023-07-22T03:50:25;26.54;71.62
74661;SHT31;63191;39.566;2.654;2023-07-22T03:52:51;26.56;71.67
74661;SHT31;63191;39.566;2.654;2023-07-22T03:55:17;26.56;71.74
74661;SHT31;63191;39.566;2.654;2023-07-22T03:57:44;26.56;71.73
74661;SHT31;63191;39.566;2.654;2023-07-22T04:00:10;26.56;71.79
74661;SHT31;63191;39.566;2.654;2023-07-22T04:02:36;26.53;71.85
74661;SHT31;63191;39.566;2.654;2023-07-22T04:05:03;26.51;71.97
74661;SHT31;63191;39.566;2.654;2023-07-22T04:07:29;26.47;71.99
74661;SHT31;63191;39.566;2.654;2023-07-22T04:09:54;26.42;72.00
74661;SHT31;63191;39.566;2.654;2023-07-22T04:12:20;26.39;72.02
74661;SHT31;63191;39.566;2.654;2023-07-22T04:14:46;26.36;72.01
74661;SHT31;63191;39.566;2.654;2023-07-22T04:17:12;26.34;71.83
74661;SHT31;63191;39.566;2.654;2023-07-22T04:19:40;26.32;71.69
74661;SHT31;63191;39.566;2.654;2023-07-22T04:22:08;26.28;71.55
74661;SHT31;63191;39.566;2.654;2023-07-22T04:24:33;26.25;71.38
74661;SHT31;63191;39.566;2.654;2023-07-22T04:27:00;26.23;71.17
74661;SHT31;63191;39.566;2.654;2023-07-22T04:29:27;26.21;70.78
74661;SHT31;63191;39.566;2.654;2023-07-22T04:31:56;26.20;70.50
74661;SHT31;63191;39.566;2.654;2023-07-22T04:34:24;26.20;70.28
74661;SHT31;63191;39.566;2.654;2023-07-22T04:36:54;26.19;70.09
74661;SHT31;63191;39.566;2.654;2023-07-22T04:39:19;26.17;69.93
74661;SHT31;63191;39.566;2.654;2023-07-22T04:41:45;26.15;69.69
74661;SHT31;63191;39.566;2.654;2023-07-22T04:44:11;26.13;69.41
74661;SHT31;63191;39.566;2.654;2023-07-22T04:46:36;26.11;69.20
74661;SHT31;63191;39.566;2.654;2023-07-22T04:49:02;26.10;69.09
74661;SHT31;63191;39.566;2.654;2023-07-22T04:51:28;26.06;68.99
74661;SHT31;63191;39.566;2.654;2023-07-22T04:53:53;26.06;68.89
74661;SHT31;63191;39.566;2.654;2023-07-22T04:56:19;26.06;68.83
74661;SHT31;63191;39.566;2.654;2023-07-22T04:58:45;26.05;68.77
74661;SHT31;63191;39.566;2.654;2023-07-22T05:01:10;26.03;68.70
74661;SHT31;63191;39.566;2.654;2023-07-22T05:03:37;26.03;68.62
74661;SHT31;63191;39.566;2.654;2023-07-22T05:06:04;26.03;68.56
74661;SHT31;63191;39.566;2.654;2023-07-22T05:08:29;26.02;68.50
74661;SHT31;63191;39.566;2.654;2023-07-22T05:10:55;26.03;68.46
74661;SHT31;63191;39.566;2.654;2023-07-22T05:13:21;26.05;68.39
74661;SHT31;63191;39.566;2.654;2023-07-22T05:15:47;26.11;68.31
74661;SHT31;63191;39.566;2.654;2023-07-22T05:18:12;26.15;68.25
74661;SHT31;63191;39.566;2.654;2023-07-22T05:20:38;26.20;68.18
74661;SHT31;63191;39.566;2.654;2023-07-22T05:23:04;26.24;68.09
74661;SHT31;63191;39.566;2.654;2023-07-22T05:25:30;26.30;68.05
74661;SHT31;63191;39.566;2.654;2023-07-22T05:27:56;26.36;67.98
74661;SHT31;63191;39.566;2.654;2023-07-22T05:30:23;26.43;67.87
74661;SHT31;63191;39.566;2.654;2023-07-22T05:32:51;26.51;67.78
74661;SHT31;63191;39.566;2.654;2023-07-22T05:35:18;26.59;67.67
74661;SHT31;63191;39.566;2.654;2023-07-22T05:37:43;26.68;67.48
74661;SHT31;63191;39.566;2.654;2023-07-22T05:40:10;26.75;67.26
74661;SHT31;63191;39.566;2.654;2023-07-22T05:42:36;26.84;67.16
74661;SHT31;63191;39.566;2.654;2023-07-22T05:45:02;26.95;67.01
74661;SHT31;63191;39.566;2.654;2023-07-22T05:47:28;27.09;66.72
74661;SHT31;63191;39.566;2.654;2023-07-22T05:49:54;27.25;66.38
74661;SHT31;63191;39.566;2.654;2023-07-22T05:52:20;27.42;66.02
74661;SHT31;63191;39.566;2.654;2023-07-22T05:54:46;27.59;65.76
74661;SHT31;63191;39.566;2.654;2023-07-22T05:57:11;27.77;65.39
74661;SHT31;63191;39.566;2.654;2023-07-22T05:59:37;27.92;64.90
74661;SHT31;63191;39.566;2.654;2023-07-22T06:02:04;28.05;64.57
74661;SHT31;63191;39.566;2.654;2023-07-22T06:04:31;28.15;64.09
74661;SHT31;63191;39.566;2.654;2023-07-22T06:06:56;28.23;63.80
74661;SHT31;63191;39.566;2.654;2023-07-22T06:09:22;28.31;63.70
74661;SHT31;63191;39.566;2.654;2023-07-22T06:11:48;28.40;63.38
74661;SHT31;63191;39.566;2.654;2023-07-22T06:14:14;28.45;63.04
74661;SHT31;63191;39.566;2.654;2023-07-22T06:16:40;28.55;62.92
74661;SHT31;63191;39.566;2.654;2023-07-22T06:19:05;28.68;62.78
74661;SHT31;63191;39.566;2.654;2023-07-22T06:21:31;28.79;62.49
74661;SHT31;63191;39.566;2.654;2023-07-22T06:23:57;28.94;62.41
74661;SHT31;63191;39.566;2.654;2023-07-22T06:26:22;29.09;62.22
74661;SHT31;63191;39.566;2.654;2023-07-22T06:28:48;29.28;61.90
74661;SHT31;63191;39.566;2.654;2023-07-22T06:31:14;29.50;61.53
74661;SHT31;63191;39.566;2.654;2023-07-22T06:33:41;29.67;61.08
74661;SHT31;63191;39.566;2.654;2023-07-22T06:36:06;29.82;60.46
74661;SHT31;63191;39.566;2.654;2023-07-22T06:38:32;29.99;59.84
74661;SHT31;63191;39.566;2.654;2023-07-22T06:40:58;30.10;58.92
74661;SHT31;63191;39.566;2.654;2023-07-22T06:43:24;30.13;58.42
74661;SHT31;63191;39.566;2.654;2023-07-22T06:45:49;30.16;58.19
74661;SHT31;63191;39.566;2.654;2023-07-22T06:48:15;30.22;57.81
74661;SHT31;63191;39.566;2.654;2023-07-22T06:50:46;30.30;57.54
74661;SHT31;63191;39.566;2.654;2023-07-22T06:53:15;30.38;57.43
74661;SHT31;63191;39.566;2.654;2023-07-22T06:55:50;30.56;57.30
74661;SHT31;63191;39.566;2.654;2023-07-22T06:58:20;30.72;56.61
74661;SHT31;63191;39.566;2.654;2023-07-22T07:00:48;30.75;56.07
74661;SHT31;63191;39.566;2.654;2023-07-22T07:03:21;30.76;55.91
74661;SHT31;63191;39.566;2.654;2023-07-22T07:05:54;30.83;55.82
74661;SHT31;63191;39.566;2.654;2023-07-22T07:08:21;31.01;55.76
74661;SHT31;63191;39.566;2.654;2023-07-22T07:10:47;31.05;55.23
74661;SHT31;63191;39.566;2.654;2023-07-22T07:13:14;30.94;54.91
74661;SHT31;63191;39.566;2.654;2023-07-22T07:15:39;30.86;55.13
74661;SHT31;63191;39.566;2.654;2023-07-22T07:18:05;30.88;54.86
74661;SHT31;63191;39.566;2.654;2023-07-22T07:20:31;30.91;54.74
74661;SHT31;63191;39.566;2.654;2023-07-22T07:22:57;30.91;54.65
74661;SHT31;63191;39.566;2.654;2023-07-22T07:25:22;30.96;54.60
74661;SHT31;63191;39.566;2.654;2023-07-22T07:27:48;31.05;54.28
74661;SHT31;63191;39.566;2.654;2023-07-22T07:30:14;31.11;54.18
74661;SHT31;63191;39.566;2.654;2023-07-22T07:32:40;31.18;53.96
74661;SHT31;63191;39.566;2.654;2023-07-22T07:35:05;31.32;53.68
74661;SHT31;63191;39.566;2.654;2023-07-22T07:37:32;31.47;53.08
74661;SHT31;63191;39.566;2.654;2023-07-22T07:39:58;31.58;52.75
74661;SHT31;63191;39.566;2.654;2023-07-22T07:42:27;31.63;52.57
74661;SHT31;63191;39.566;2.654;2023-07-22T07:44:53;31.65;51.99
74661;SHT31;63191;39.566;2.654;2023-07-22T07:47:19;31.77;51.90
74661;SHT31;63191;39.566;2.654;2023-07-22T07:49:45;32.02;51.15
74661;SHT31;63191;39.566;2.654;2023-07-22T07:52:12;32.20;50.84
74661;SHT31;63191;39.566;2.654;2023-07-22T07:54:40;32.45;50.57
74661;SHT31;63191;39.566;2.654;2023-07-22T07:57:06;32.82;49.79
74661;SHT31;63191;39.566;2.654;2023-07-22T07:59:33;33.13;48.65
74661;SHT31;63191;39.566;2.654;2023-07-22T08:01:58;33.24;48.31
74661;SHT31;63191;39.566;2.654;2023-07-22T08:04:24;33.28;47.93
74661;SHT31;63191;39.566;2.654;2023-07-22T08:06:50;33.38;48.11
74661;SHT31;63191;39.566;2.654;2023-07-22T08:09:16;33.47;47.42
74661;SHT31;63191;39.566;2.654;2023-07-22T08:11:44;33.45;47.48
74661;SHT31;63191;39.566;2.654;2023-07-22T08:14:10;33.37;47.54
74661;SHT31;63191;39.566;2.654;2023-07-22T08:16:36;33.28;47.83
74661;SHT31;63191;39.566;2.654;2023-07-22T08:19:02;33.22;47.87
74661;SHT31;63191;39.566;2.654;2023-07-22T08:21:28;33.11;47.84
74661;SHT31;63191;39.566;2.654;2023-07-22T08:23:53;33.01;47.86
74661;SHT31;63191;39.566;2.654;2023-07-22T08:26:19;32.90;47.88
74661;SHT31;63191;39.566;2.654;2023-07-22T08:28:47;32.81;47.81
74661;SHT31;63191;39.566;2.654;2023-07-22T08:31:13;32.71;47.98
74661;SHT31;63191;39.566;2.654;2023-07-22T08:33:38;32.65;48.31
74661;SHT31;63191;39.566;2.654;2023-07-22T08:36:04;32.64;48.63
74661;SHT31;63191;39.566;2.654;2023-07-22T08:38:30;32.55;48.76
74661;SHT31;63191;39.566;2.654;2023-07-22T08:40:56;32.48;48.87
74661;SHT31;63191;39.566;2.654;2023-07-22T08:43:22;32.41;48.77
74661;SHT31;63191;39.566;2.654;2023-07-22T08:45:49;32.36;48.74
74661;SHT31;63191;39.566;2.654;2023-07-22T08:48:17;32.29;48.89
74661;SHT31;63191;39.566;2.654;2023-07-22T08:50:45;32.23;49.02
74661;SHT31;63191;39.566;2.654;2023-07-22T08:53:16;32.18;49.43
74661;SHT31;63191;39.566;2.654;2023-07-22T08:55:44;32.13;49.55
74661;SHT31;63191;39.566;2.654;2023-07-22T08:58:11;32.12;49.21
74661;SHT31;63191;39.566;2.654;2023-07-22T09:00:38;32.22;48.89
74661;SHT31;63191;39.566;2.654;2023-07-22T09:03:05;32.27;48.67
74661;SHT31;63191;39.566;2.654;2023-07-22T09:05:32;32.34;48.71
74661;SHT31;63191;39.566;2.654;2023-07-22T09:08:01;32.53;48.80
74661;SHT31;63191;39.566;2.654;2023-07-22T09:10:30;32.83;48.33
74661;SHT31;63191;39.566;2.654;2023-07-22T09:12:56;33.02;47.77
74661;SHT31;63191;39.566;2.654;2023-07-22T09:15:25;33.16;47.42
74661;SHT31;63191;39.566;2.654;2023-07-22T09:17:51;33.35;47.19
74661;SHT31;63191;39.566;2.654;2023-07-22T09:20:17;33.49;46.98
74661;SHT31;63191;39.566;2.654;2023-07-22T09:22:45;33.60;46.82
74661;SHT31;63191;39.566;2.654;2023-07-22T09:25:19;33.68;46.39
74661;SHT31;63191;39.566;2.654;2023-07-22T09:27:48;33.77;45.99
74661;SHT31;63191;39.566;2.654;2023-07-22T09:30:20;33.87;45.79
74661;SHT31;63191;39.566;2.654;2023-07-22T09:33:05;33.91;45.55
74661;SHT31;63191;39.566;2.654;2023-07-22T09:35:45;34.00;45.39
74661;SHT31;63191;39.566;2.654;2023-07-22T09:38:12;34.14;45.09
74661;SHT31;63191;39.566;2.654;2023-07-22T09:40:42;34.26;44.76
74661;SHT31;63191;39.566;2.654;2023-07-22T09:43:11;34.32;44.55
74661;SHT31;63191;39.566;2.654;2023-07-22T09:45:37;34.58;44.36
74661;SHT31;63191;39.566;2.654;2023-07-22T09:48:03;34.78;43.72
74661;SHT31;63191;39.566;2.654;2023-07-22T09:50:30;34.92;43.32
74661;SHT31;63191;39.566;2.654;2023-07-22T09:52:57;34.96;43.00
74661;SHT31;63191;39.566;2.654;2023-07-22T09:55:25;35.01;43.07
74661;SHT31;63191;39.566;2.654;2023-07-22T09:57:56;35.03;43.06
74661;SHT31;63191;39.566;2.654;2023-07-22T10:00:34;35.01;42.96
74661;SHT31;63191;39.566;2.654;2023-07-22T10:03:02;34.78;43.01
74661;SHT31;63191;39.566;2.654;2023-07-22T10:05:33;34.70;43.27
74661;SHT31;63191;39.566;2.654;2023-07-22T10:08:01;34.82;43.37
74661;SHT31;63191;39.566;2.654;2023-07-22T10:10:33;35.03;42.94
74661;SHT31;63191;39.566;2.654;2023-07-22T10:13:02;35.27;42.46
74661;SHT31;63191;39.566;2.654;2023-07-22T10:15:29;35.42;42.17
74661;SHT31;63191;39.566;2.654;2023-07-22T10:18:01;35.65;41.88
74661;SHT31;63191;39.566;2.654;2023-07-22T10:20:30;35.87;41.23
74661;SHT31;63191;39.566;2.654;2023-07-22T10:23:01;36.01;41.05
74661;SHT31;63191;39.566;2.654;2023-07-22T10:25:29;36.10;40.21
74661;SHT31;63191;39.566;2.654;2023-07-22T10:27:55;36.13;40.13
74661;SHT31;63191;39.566;2.654;2023-07-22T10:30:21;36.27;40.69
74661;SHT31;63191;39.566;2.654;2023-07-22T10:32:47;36.45;40.51
74661;SHT31;63191;39.566;2.654;2023-07-22T10:37:56;37.04;39.72
74661;SHT31;63191;39.566;2.654;2023-07-22T10:40:44;37.08;38.71
74661;SHT31;63191;39.566;2.654;2023-07-22T10:43:27;37.05;38.48
74661;SHT31;63191;39.566;2.654;2023-07-22T10:46:10;37.19;38.70
74661;SHT31;63191;39.566;2.654;2023-07-22T10:48:41;37.50;39.32
74661;SHT31;63191;39.566;2.654;2023-07-22T10:51:09;37.73;39.07
74661;SHT31;63191;39.566;2.654;2023-07-22T10:53:41;37.65;38.57
74661;SHT31;63191;39.566;2.654;2023-07-22T11:11:55;38.36;37.17
74661;SHT31;63191;39.566;2.654;2023-07-22T11:14:24;38.25;37.29
74661;SHT31;63191;39.566;2.654;2023-07-22T11:17:13;38.14;37.62
74661;SHT31;63191;39.566;2.654;2023-07-22T11:19:39;38.04;37.58
74661;SHT31;63191;39.566;2.654;2023-07-22T11:22:05;38.04;37.71
74661;SHT31;63191;39.566;2.654;2023-07-22T11:24:32;38.19;37.67
74661;SHT31;63191;39.566;2.654;2023-07-22T11:27:03;38.30;37.35
74661;SHT31;63191;39.566;2.654;2023-07-22T11:29:31;38.28;37.12
74661;SHT31;63191;39.566;2.654;2023-07-22T11:31:58;38.17;37.40
74661;SHT31;63191;39.566;2.654;2023-07-22T11:34:24;38.13;37.58
74661;SHT31;63191;39.566;2.654;2023-07-22T11:36:51;38.07;37.23
74661;SHT31;63191;39.566;2.654;2023-07-22T11:39:20;38.01;36.75
74661;SHT31;63191;39.566;2.654;2023-07-22T11:41:48;37.93;36.29
74661;SHT31;63191;39.566;2.654;2023-07-22T11:44:15;37.92;36.44
74661;SHT31;63191;39.566;2.654;2023-07-22T11:47:01;37.90;36.24
74661;SHT31;63191;39.566;2.654;2023-07-22T11:49:30;37.92;36.33
74661;SHT31;63191;39.566;2.654;2023-07-22T11:52:00;37.93;36.19
74661;SHT31;63191;39.566;2.654;2023-07-22T11:54:29;37.96;36.25
74661;SHT31;63191;39.566;2.654;2023-07-22T11:57:08;38.09;36.27
74661;SHT31;63191;39.566;2.654;2023-07-22T11:59:39;38.29;36.24
74661;SHT31;63191;39.566;2.654;2023-07-22T12:02:16;38.58;36.16
74661;SHT31;63191;39.566;2.654;2023-07-22T12:04:56;38.98;35.81
74661;SHT31;63191;39.566;2.654;2023-07-22T12:07:32;39.44;35.50
74661;SHT31;63191;39.566;2.654;2023-07-22T12:10:02;40.00;34.94
74661;SHT31;63191;39.566;2.654;2023-07-22T12:12:33;40.79;34.52
74661;SHT31;63191;39.566;2.654;2023-07-22T12:15:16;41.33;33.16
74661;SHT31;63191;39.566;2.654;2023-07-22T12:17:48;41.60;33.03
74661;SHT31;63191;39.566;2.654;2023-07-22T12:20:29;42.33;32.84
74661;SHT31;63191;39.566;2.654;2023-07-22T12:22:58;43.13;32.09
74661;SHT31;63191;39.566;2.654;2023-07-22T12:25:25;44.12;31.63
74661;SHT31;63191;39.566;2.654;2023-07-22T12:27:51;45.20;29.70
74661;SHT31;63191;39.566;2.654;2023-07-22T12:30:17;46.08;28.43
74661;SHT31;63191;39.566;2.654;2023-07-22T12:32:43;46.91;27.78
74661;SHT31;63191;39.566;2.654;2023-07-22T12:35:09;47.72;26.56
74661;SHT31;63191;39.566;2.654;2023-07-22T12:37:35;48.47;25.92
74661;SHT31;63191;39.566;2.654;2023-07-22T12:40:02;49.27;25.16
74661;SHT31;63191;39.566;2.654;2023-07-22T12:42:33;49.40;24.45
74661;SHT31;63191;39.566;2.654;2023-07-22T12:45:02;48.21;24.97
74661;SHT31;63191;39.566;2.654;2023-07-22T12:47:30;46.94;25.94
74661;SHT31;63191;39.566;2.654;2023-07-22T12:49:56;45.87;26.84
74661;SHT31;63191;39.566;2.654;2023-07-22T12:52:21;44.90;27.69
74661;SHT31;63191;39.566;2.654;2023-07-22T12:54:47;44.58;28.39
74661;SHT31;63191;39.566;2.654;2023-07-22T12:57:13;45.48;28.38
74661;SHT31;63191;39.566;2.654;2023-07-22T12:59:39;46.26;27.41
74661;SHT31;63191;39.566;2.654;2023-07-22T13:02:06;47.16;26.66
74661;SHT31;63191;39.566;2.654;2023-07-22T13:04:31;48.40;25.57
74661;SHT31;63191;39.566;2.654;2023-07-22T13:06:57;49.58;24.70
74661;SHT31;63191;39.566;2.654;2023-07-22T13:09:23;50.57;23.99
74661;SHT31;63191;39.566;2.654;2023-07-22T13:11:49;51.35;23.27
74661;SHT31;63191;39.566;2.654;2023-07-22T13:14:14;51.98;22.25
74661;SHT31;63191;39.566;2.654;2023-07-22T13:16:42;52.66;21.89
74661;SHT31;63191;39.566;2.654;2023-07-22T13:19:09;52.99;21.23
74661;SHT31;63191;39.566;2.654;2023-07-22T13:21:34;53.27;21.24
74661;SHT31;63191;39.566;2.654;2023-07-22T13:24:00;53.88;20.72
74661;SHT31;63191;39.566;2.654;2023-07-22T13:26:26;54.81;20.62
74661;SHT31;63191;39.566;2.654;2023-07-22T13:28:52;55.81;20.02
74661;SHT31;63191;39.566;2.654;2023-07-22T13:31:18;56.48;20.01
74661;SHT31;63191;39.566;2.654;2023-07-22T13:33:45;57.38;19.20
74661;SHT31;63191;39.566;2.654;2023-07-22T13:36:10;56.69;18.48
74661;SHT31;63191;39.566;2.654;2023-07-22T13:38:36;54.29;19.30
74661;SHT31;63191;39.566;2.654;2023-07-22T13:41:02;51.95;22.11
74661;SHT31;63191;39.566;2.654;2023-07-22T13:43:27;50.99;23.63
74661;SHT31;63191;39.566;2.654;2023-07-22T13:45:53;50.81;23.58
74661;SHT31;63191;39.566;2.654;2023-07-22T13:48:19;49.73;24.73
74661;SHT31;63191;39.566;2.654;2023-07-22T13:50:45;49.64;24.91
74661;SHT31;63191;39.566;2.654;2023-07-22T13:53:10;48.41;25.74
74661;SHT31;63191;39.566;2.654;2023-07-22T13:55:36;47.72;26.41
74661;SHT31;63191;39.566;2.654;2023-07-22T13:58:02;47.31;26.87
74661;SHT31;63191;39.566;2.654;2023-07-22T14:00:28;47.89;26.59
74661;SHT31;63191;39.566;2.654;2023-07-22T14:02:53;49.00;26.22
74661;SHT31;63191;39.566;2.654;2023-07-22T14:05:19;49.88;25.23
74661;SHT31;63191;39.566;2.654;2023-07-22T14:07:45;50.68;25.16
74661;SHT31;63191;39.566;2.654;2023-07-22T14:10:11;51.41;23.84
74661;SHT31;63191;39.566;2.654;2023-07-22T14:12:36;51.27;23.77
74661;SHT31;63191;39.566;2.654;2023-07-22T14:15:02;50.31;25.05
74661;SHT31;63191;39.566;2.654;2023-07-22T14:17:31;49.36;26.14
74661;SHT31;63191;39.566;2.654;2023-07-22T14:19:59;49.19;26.41
74661;SHT31;63191;39.566;2.654;2023-07-22T14:22:25;49.82;26.14
74661;SHT31;63191;39.566;2.654;2023-07-22T14:24:51;50.22;25.30
74661;SHT31;63191;39.566;2.654;2023-07-22T14:27:17;50.41;25.67
74661;SHT31;63191;39.566;2.654;2023-07-22T14:29:42;50.87;25.15
74661;SHT31;63191;39.566;2.654;2023-07-22T14:32:08;51.37;24.80
74661;SHT31;63191;39.566;2.654;2023-07-22T14:34:34;51.79;24.35
74661;SHT31;63191;39.566;2.654;2023-07-22T14:37:00;51.81;24.14
74661;SHT31;63191;39.566;2.654;2023-07-22T14:39:26;51.79;24.38
74661;SHT31;63191;39.566;2.654;2023-07-22T14:41:52;51.77;24.20
74661;SHT31;63191;39.566;2.654;2023-07-22T14:44:18;51.77;24.16
74661;SHT31;63191;39.566;2.654;2023-07-22T14:46:45;51.49;24.18
74661;SHT31;63191;39.566;2.654;2023-07-22T14:49:10;49.85;25.37
74661;SHT31;63191;39.566;2.654;2023-07-22T14:51:36;47.93;27.09
74661;SHT31;63191;39.566;2.654;2023-07-22T14:54:02;46.26;29.67
74661;SHT31;63191;39.566;2.654;2023-07-22T14:56:28;44.67;31.44
74661;SHT31;63191;39.566;2.654;2023-07-22T14:58:54;43.90;32.33
74661;SHT31;63191;39.566;2.654;2023-07-22T15:01:21;42.81;33.94
74661;SHT31;63191;39.566;2.654;2023-07-22T15:03:46;42.09;35.55
74661;SHT31;63191;39.566;2.654;2023-07-22T15:06:12;43.02;34.57
74661;SHT31;63191;39.566;2.654;2023-07-22T15:08:38;42.84;34.13
74661;SHT31;63191;39.566;2.654;2023-07-22T15:11:03;42.55;34.37
74661;SHT31;63191;39.566;2.654;2023-07-22T15:13:29;42.10;35.61
74661;SHT31;63191;39.566;2.654;2023-07-22T15:15:55;42.06;36.27
74661;SHT31;63191;39.566;2.654;2023-07-22T15:18:22;42.69;35.47
74661;SHT31;63191;39.566;2.654;2023-07-22T15:20:50;42.01;35.77
74661;SHT31;63191;39.566;2.654;2023-07-22T15:23:19;40.86;37.63
74661;SHT31;63191;39.566;2.654;2023-07-22T15:25:45;40.17;38.65
74661;SHT31;63191;39.566;2.654;2023-07-22T15:28:10;39.58;39.49
74661;SHT31;63191;39.566;2.654;2023-07-22T15:30:36;38.94;40.85
74661;SHT31;63191;39.566;2.654;2023-07-22T15:33:02;38.33;41.81
74661;SHT31;63191;39.566;2.654;2023-07-22T15:35:28;37.85;42.93
74661;SHT31;63191;39.566;2.654;2023-07-22T15:37:53;37.66;44.04
74661;SHT31;63191;39.566;2.654;2023-07-22T15:40:19;37.84;43.56
74661;SHT31;63191;39.566;2.654;2023-07-22T15:42:45;38.54;42.57
74661;SHT31;63191;39.566;2.654;2023-07-22T15:45:11;38.73;42.06
74661;SHT31;63191;39.566;2.654;2023-07-22T15:47:37;38.58;41.99